EHVL

Vlieland Heliport

Vlieland, The Netherlands
METAR EHVL 171201Z AUTO 25014KT 9999 FEW013 BKN016 BKN019 07/07 Q1013 WHT
Observed Flight Rules
Dec-17 @ 12:01 UTC (14 minutes ago) Marginal Visual Flight Rules
Wind Visibility Clouds
250° at 14 knots 10,000+ meters
  • Few at 1,300' AGL
  • Broken at 1,600' AGL
  • Broken at 1,900' AGL
Temperatures Readings
Current 7°C / 45°F
Dewpoint 7°C / 45°F
Humidity 100%
Altimeter 29.91" Hg
Pressure 1013 hPa
Elevation 5
METAR EHVL 171201Z AUTO 25014KT 9999 FEW013 BKN016 BKN019 07/07 Q1013 WHT
Observed Flight Rules
Dec-17 @ 12:01 UTC
(14 minutes ago)
MVFR
Wind Visibility
250° at 14 knots 10,000+ meters
Clouds
  • Few at 1,300' AGL
  • Broken at 1,600' AGL
  • Broken at 1,900' AGL
Temperature Dewpoint
7°C / 45°F 7°C / 45°F
Humidity Altimeter Pressure
100% 29.91" Hg 1013 hPa